createdAt,value
2018-12-29T00:02:47.539Z,3.15
2018-12-29T00:07:43.534Z,3.09
2018-12-29T00:12:39.529Z,3.25
2018-12-29T00:17:35.423Z,3.21
2018-12-29T00:22:31.323Z,3.23
2018-12-29T00:27:27.214Z,3.23
2018-12-29T00:32:23.113Z,3.24
2018-12-29T00:38:00.749Z,3.25
2018-12-29T00:42:56.650Z,3.50
2018-12-29T00:47:52.660Z,3.22
2018-12-29T00:52:48.574Z,3.37
2018-12-29T00:57:44.476Z,3.29
2018-12-29T01:02:40.439Z,3.33
2018-12-29T01:07:36.444Z,3.42
2018-12-29T01:12:32.361Z,3.52
2018-12-29T01:17:28.264Z,3.88
2018-12-29T01:22:24.168Z,4.04
2018-12-29T01:27:20.132Z,3.68
2018-12-29T01:32:16.063Z,4.02
2018-12-29T01:37:11.959Z,3.94
2018-12-29T01:42:07.869Z,4.03
2018-12-29T01:47:03.822Z,3.53
2018-12-29T01:51:59.723Z,3.46
2018-12-29T01:56:55.598Z,3.59
2018-12-29T02:01:52.407Z,3.46
2018-12-29T02:06:48.276Z,3.90
2018-12-29T02:11:44.211Z,3.63
2018-12-29T02:16:40.106Z,3.52
2018-12-29T02:21:36.007Z,3.40
2018-12-29T02:31:40.468Z,3.81
2018-12-29T02:36:36.357Z,3.65
2018-12-29T02:41:32.261Z,3.85
2018-12-29T02:46:28.179Z,3.58
2018-12-29T02:51:24.087Z,3.60
2018-12-29T02:56:19.982Z,3.58
2018-12-29T03:01:36.319Z,3.57
2018-12-29T03:06:32.267Z,3.69
2018-12-29T03:11:28.167Z,3.63
2018-12-29T03:16:24.066Z,3.63
2018-12-29T03:21:19.962Z,3.69
2018-12-29T03:26:15.860Z,3.81
2018-12-29T03:31:15.137Z,4.21
2018-12-29T03:36:11.065Z,4.38
2018-12-29T03:41:06.968Z,4.31
2018-12-29T03:46:02.895Z,4.15
2018-12-29T03:50:58.786Z,4.35
2018-12-29T03:55:54.740Z,4.37
2018-12-29T04:01:12.462Z,4.18
2018-12-29T04:06:08.470Z,4.17
2018-12-29T04:11:04.478Z,4.20
2018-12-29T04:16:00.378Z,4.30
2018-12-29T04:20:56.279Z,4.28
2018-12-29T04:25:52.289Z,4.33
2018-12-29T04:31:09.116Z,4.27
2018-12-29T04:36:05.113Z,4.29
2018-12-29T04:41:01.011Z,4.35
2018-12-29T04:45:57.039Z,4.41
2018-12-29T04:50:52.934Z,4.44
2018-12-29T04:55:48.831Z,4.43
2018-12-29T05:00:45.313Z,4.57
2018-12-29T05:05:41.207Z,4.65
2018-12-29T05:10:37.104Z,4.64
2018-12-29T05:15:33.006Z,4.67
2018-12-29T05:20:28.902Z,4.74
2018-12-29T05:25:24.797Z,4.69
2018-12-29T05:30:20.698Z,4.64
2018-12-29T05:35:16.591Z,4.56
2018-12-29T05:40:12.499Z,4.50
2018-12-29T05:45:08.391Z,4.47
2018-12-29T05:50:04.385Z,4.58
2018-12-29T05:55:00.290Z,4.53
2018-12-29T05:59:56.181Z,4.59
2018-12-29T06:04:52.055Z,4.47
2018-12-29T06:09:47.946Z,4.51
2018-12-29T06:14:43.851Z,4.56
2018-12-29T06:19:39.742Z,4.60
2018-12-29T06:24:35.662Z,4.72
2018-12-29T06:29:31.542Z,4.79
2018-12-29T06:34:27.448Z,4.75
2018-12-29T06:39:23.342Z,4.84
2018-12-29T06:44:19.240Z,4.84
2018-12-29T06:49:15.261Z,4.77
2018-12-29T06:54:11.174Z,4.75
2018-12-29T06:59:07.067Z,4.62
2018-12-29T07:04:02.971Z,4.77
2018-12-29T07:08:58.874Z,4.79
2018-12-29T07:13:54.772Z,4.77
2018-12-29T07:18:50.830Z,4.64
2018-12-29T07:23:46.760Z,5.02
2018-12-29T07:28:42.680Z,4.93
2018-12-29T07:33:38.811Z,5.14
2018-12-29T07:38:34.712Z,5.02
2018-12-29T07:43:30.665Z,5.07
2018-12-29T07:48:26.586Z,4.96
2018-12-29T07:53:22.492Z,5.01
2018-12-29T07:58:18.404Z,5.05
2018-12-29T08:03:14.317Z,4.98
2018-12-29T08:08:10.228Z,5.02
2018-12-29T08:13:06.138Z,4.97
2018-12-29T08:18:02.077Z,4.94
2018-12-29T08:22:57.988Z,5.06
2018-12-29T08:27:54.075Z,5.24
2018-12-29T08:32:50.011Z,5.28
2018-12-29T08:37:53.588Z,5.21
2018-12-29T08:42:49.534Z,5.14
2018-12-29T08:47:45.463Z,5.10
2018-12-29T08:52:41.395Z,5.30
2018-12-29T08:57:38.126Z,5.43
2018-12-29T09:02:36.013Z,5.38
2018-12-29T09:07:31.955Z,5.50
2018-12-29T09:12:28.846Z,5.40
2018-12-29T09:17:24.753Z,5.58
2018-12-29T09:22:20.684Z,5.72
2018-12-29T09:27:16.592Z,5.73
2018-12-29T09:32:32.403Z,5.73
2018-12-29T09:37:28.336Z,5.65
2018-12-29T09:42:24.285Z,5.64
2018-12-29T09:47:20.215Z,5.59
2018-12-29T09:52:16.110Z,5.79
2018-12-29T09:57:12.019Z,5.80
2018-12-29T10:02:07.925Z,5.76
2018-12-29T10:07:03.989Z,5.68
2018-12-29T10:11:59.954Z,5.90
2018-12-29T10:16:55.873Z,5.97
2018-12-29T10:21:51.835Z,5.84
2018-12-29T10:32:11.363Z,6.03
2018-12-29T10:37:07.333Z,6.06
2018-12-29T10:42:03.455Z,6.06
2018-12-29T10:46:59.561Z,6.00
2018-12-29T10:51:55.594Z,6.16
2018-12-29T10:56:51.565Z,6.23
2018-12-29T11:01:47.552Z,6.27
2018-12-29T11:06:43.527Z,6.32
2018-12-29T11:11:39.729Z,6.28
2018-12-29T11:17:17.361Z,6.31
2018-12-29T11:22:13.338Z,6.31
2018-12-29T11:27:09.261Z,6.28
2018-12-29T11:32:05.310Z,6.30
2018-12-29T11:37:01.323Z,6.29
2018-12-29T11:41:57.303Z,6.35
2018-12-29T11:46:53.275Z,6.45
2018-12-29T11:51:49.176Z,6.41
2018-12-29T11:56:45.098Z,6.44
2018-12-29T12:01:41.755Z,6.47
2018-12-29T12:06:37.739Z,6.43
2018-12-29T12:11:33.704Z,6.46
2018-12-29T12:16:29.623Z,6.51
2018-12-29T12:21:25.528Z,6.56
2018-12-29T12:26:21.647Z,6.63
2018-12-29T12:31:19.913Z,6.61
2018-12-29T12:36:15.922Z,6.63
2018-12-29T12:41:11.891Z,6.73
2018-12-29T12:46:07.929Z,6.71
2018-12-29T12:51:03.857Z,6.77
2018-12-29T12:55:59.774Z,6.81
2018-12-29T13:01:17.025Z,6.80
2018-12-29T13:06:13.022Z,6.87
2018-12-29T13:11:08.933Z,6.88
2018-12-29T13:16:04.842Z,6.91
2018-12-29T13:21:00.744Z,6.93
2018-12-29T13:25:56.734Z,6.93
2018-12-29T13:31:34.611Z,6.94
2018-12-29T13:36:30.605Z,7.07
2018-12-29T13:41:26.525Z,7.16
2018-12-29T13:46:22.462Z,7.11
2018-12-29T13:51:18.381Z,7.20
2018-12-29T13:56:14.293Z,7.15
2018-12-29T14:01:32.573Z,7.15
2018-12-29T14:06:28.541Z,7.21
2018-12-29T14:11:24.485Z,7.17
2018-12-29T14:16:20.551Z,7.22
2018-12-29T14:21:16.447Z,7.26
2018-12-29T14:26:12.488Z,7.19
2018-12-29T14:31:10.569Z,7.21
2018-12-29T14:36:06.611Z,7.28
2018-12-29T14:41:02.505Z,7.30
2018-12-29T14:45:58.471Z,7.23
2018-12-29T14:50:54.384Z,7.18
2018-12-29T14:55:50.288Z,7.18
2018-12-29T15:00:46.299Z,7.12
2018-12-29T15:05:42.281Z,7.08
2018-12-29T15:10:38.204Z,7.21
2018-12-29T15:15:36.781Z,7.18
2018-12-29T15:20:33.083Z,7.14
2018-12-29T15:25:29.201Z,7.06
2018-12-29T15:30:25.103Z,7.04
2018-12-29T15:35:21.011Z,6.98
2018-12-29T15:40:16.999Z,6.89
2018-12-29T15:45:12.905Z,6.82
2018-12-29T15:50:22.626Z,6.81
2018-12-29T15:55:18.934Z,6.88
2018-12-29T16:00:14.835Z,6.84
2018-12-29T16:05:10.737Z,6.87
2018-12-29T16:10:07.054Z,6.91
2018-12-29T16:15:44.618Z,6.87
2018-12-29T16:20:40.520Z,6.90
2018-12-29T16:25:36.423Z,6.87
2018-12-29T16:30:32.400Z,6.86
2018-12-29T16:35:28.505Z,6.91
2018-12-29T16:40:26.301Z,6.87
2018-12-29T16:45:22.230Z,6.86
2018-12-29T16:50:18.128Z,6.86
2018-12-29T16:55:14.030Z,6.85
2018-12-29T17:00:09.926Z,6.96
2018-12-29T17:05:05.828Z,7.00
2018-12-29T17:10:01.729Z,7.01
2018-12-29T17:14:57.633Z,7.02
2018-12-29T17:19:53.533Z,7.02
2018-12-29T17:24:49.430Z,7.07
2018-12-29T17:29:45.326Z,7.09
2018-12-29T17:34:41.228Z,7.05
2018-12-29T17:39:37.124Z,7.06
2018-12-29T17:44:33.016Z,7.10
2018-12-29T17:49:28.922Z,7.10
2018-12-29T17:54:26.715Z,7.13
2018-12-29T17:59:22.617Z,7.18
2018-12-29T18:04:20.437Z,7.22
2018-12-29T18:09:16.346Z,7.24
2018-12-29T18:14:12.251Z,7.24
2018-12-29T18:19:08.143Z,7.28
2018-12-29T18:24:04.048Z,7.30
2018-12-29T18:28:59.944Z,7.30
2018-12-29T18:33:55.814Z,7.33
2018-12-29T18:38:51.715Z,7.40
2018-12-29T18:43:49.509Z,7.41
2018-12-29T18:48:45.407Z,7.46
2018-12-29T18:53:41.307Z,7.45
2018-12-29T18:58:37.200Z,7.49
2018-12-29T19:03:33.105Z,7.49
2018-12-29T19:08:29.398Z,7.52
2018-12-29T19:13:25.347Z,7.60
2018-12-29T19:18:23.092Z,7.65
2018-12-29T19:23:19.003Z,7.69
2018-12-29T19:28:16.911Z,7.74
2018-12-29T19:33:12.811Z,7.80
2018-12-29T19:38:08.761Z,7.84
2018-12-29T19:43:06.520Z,7.87
2018-12-29T19:48:22.494Z,7.95
2018-12-29T19:53:18.674Z,8.02
2018-12-29T19:58:14.573Z,8.10
2018-12-29T20:03:11.321Z,8.11
2018-12-29T20:08:08.335Z,8.09
2018-12-29T20:13:04.338Z,8.20
2018-12-29T20:18:00.277Z,8.34
2018-12-29T20:22:56.238Z,8.52
2018-12-29T20:27:52.149Z,8.63
2018-12-29T20:32:48.101Z,8.60
2018-12-29T20:37:44.012Z,8.49
2018-12-29T20:43:00.094Z,8.48
2018-12-29T20:47:56.214Z,8.56
2018-12-29T20:52:52.328Z,8.43
2018-12-29T20:57:48.223Z,8.33
2018-12-29T21:02:44.235Z,8.02
2018-12-29T21:07:40.330Z,7.86
2018-12-29T21:12:36.269Z,7.64
2018-12-29T21:17:32.203Z,7.64
2018-12-29T21:22:28.290Z,7.64
2018-12-29T21:27:24.197Z,7.56
2018-12-29T21:32:20.242Z,7.61
2018-12-29T21:37:16.209Z,7.71
2018-12-29T21:42:12.187Z,7.72
2018-12-29T21:47:08.091Z,7.69
2018-12-29T21:52:26.833Z,7.53
2018-12-29T21:57:22.839Z,7.44
2018-12-29T22:02:18.735Z,7.29
2018-12-29T22:07:14.693Z,7.25
2018-12-29T22:12:10.591Z,7.31
2018-12-29T22:17:06.830Z,7.32
2018-12-29T22:22:03.242Z,7.24
2018-12-29T22:26:59.135Z,7.49
2018-12-29T22:31:55.807Z,7.45
2018-12-29T22:36:51.733Z,7.20
2018-12-29T22:41:47.727Z,7.22
2018-12-29T22:46:43.625Z,7.27
2018-12-29T22:51:39.523Z,7.29
2018-12-29T22:56:35.426Z,7.28
2018-12-29T23:01:32.206Z,7.28
2018-12-29T23:06:28.149Z,7.30
2018-12-29T23:11:24.141Z,7.24
2018-12-29T23:16:20.138Z,7.22
2018-12-29T23:21:17.953Z,7.21
2018-12-29T23:26:13.871Z,7.26
2018-12-29T23:31:51.755Z,7.22
2018-12-29T23:36:47.706Z,7.20
2018-12-29T23:41:43.643Z,7.22
2018-12-29T23:46:39.670Z,7.25
2018-12-29T23:51:35.687Z,7.28
2018-12-29T23:56:33.459Z,7.29
